sensor_id;sensor_type;location;lat;lon;timestamp;P1;durP1;ratioP1;P2;durP2;ratioP2
76964;SDS011;65903;51.452;7.198;2022-12-07T22:28:40;6.03;;;1.27;;
76964;SDS011;65903;51.452;7.198;2022-12-07T22:29:40;2.97;;;1.00;;
76964;SDS011;65903;51.452;7.198;2022-12-07T22:31:25;10.70;;;8.70;;
76964;SDS011;65903;51.452;7.198;2022-12-07T22:32:26;12.63;;;8.30;;
76964;SDS011;65903;51.452;7.198;2022-12-07T22:33:26;11.93;;;8.73;;
76964;SDS011;65903;51.452;7.198;2022-12-07T22:34:26;12.57;;;8.17;;
76964;SDS011;65903;51.452;7.198;2022-12-07T22:35:28;11.63;;;9.20;;
76964;SDS011;65903;51.452;7.198;2022-12-07T22:36:29;16.30;;;10.93;;
76964;SDS011;65903;51.452;7.198;2022-12-07T22:37:31;17.00;;;10.07;;
76964;SDS011;65903;51.452;7.198;2022-12-07T22:38:31;19.15;;;10.65;;
76964;SDS011;65903;51.452;7.198;2022-12-07T22:39:32;17.42;;;11.52;;
76964;SDS011;65903;51.452;7.198;2022-12-07T22:40:32;16.23;;;9.77;;
76964;SDS011;65903;51.452;7.198;2022-12-07T22:41:32;17.07;;;9.83;;
76964;SDS011;65903;51.452;7.198;2022-12-07T22:42:32;9.07;;;5.93;;
76964;SDS011;65903;51.452;7.198;2022-12-07T22:43:33;22.67;;;12.33;;
76964;SDS011;65903;51.452;7.198;2022-12-07T22:44:36;13.32;;;8.90;;
76964;SDS011;65903;51.452;7.198;2022-12-07T22:45:36;13.80;;;9.00;;
76964;SDS011;65903;51.452;7.198;2022-12-07T22:46:38;18.35;;;12.05;;
76964;SDS011;65903;51.452;7.198;2022-12-07T22:47:41;20.85;;;11.77;;
76964;SDS011;65903;51.452;7.198;2022-12-07T22:48:41;21.63;;;12.25;;
76964;SDS011;65903;51.452;7.198;2022-12-07T22:49:42;20.23;;;11.90;;
76964;SDS011;65903;51.452;7.198;2022-12-07T22:50:44;15.43;;;8.80;;
76964;SDS011;65903;51.452;7.198;2022-12-07T22:51:45;23.13;;;12.32;;
76964;SDS011;65903;51.452;7.198;2022-12-07T22:52:45;17.67;;;10.55;;
76964;SDS011;65903;51.452;7.198;2022-12-07T22:53:45;15.60;;;10.02;;
76964;SDS011;65903;51.452;7.198;2022-12-07T22:54:47;16.02;;;10.95;;
76964;SDS011;65903;51.452;7.198;2022-12-07T22:55:48;21.00;;;11.60;;
76964;SDS011;65903;51.452;7.198;2022-12-07T22:56:48;21.88;;;12.43;;
76964;SDS011;65903;51.452;7.198;2022-12-07T22:57:49;17.90;;;11.48;;
76964;SDS011;65903;51.452;7.198;2022-12-07T22:58:49;20.27;;;10.87;;
76964;SDS011;65903;51.452;7.198;2022-12-07T22:59:49;19.42;;;12.48;;
76964;SDS011;65903;51.452;7.198;2022-12-07T23:00:49;19.37;;;11.27;;
76964;SDS011;65903;51.452;7.198;2022-12-07T23:01:49;14.18;;;8.20;;
76964;SDS011;65903;51.452;7.198;2022-12-07T23:02:50;20.20;;;12.98;;
76964;SDS011;65903;51.452;7.198;2022-12-07T23:03:50;20.03;;;12.47;;
76964;SDS011;65903;51.452;7.198;2022-12-07T23:04:50;17.95;;;10.15;;
76964;SDS011;65903;51.452;7.198;2022-12-07T23:05:51;20.63;;;11.40;;
76964;SDS011;65903;51.452;7.198;2022-12-07T23:06:53;20.10;;;12.00;;
76964;SDS011;65903;51.452;7.198;2022-12-07T23:07:58;22.50;;;13.93;;
76964;SDS011;65903;51.452;7.198;2022-12-07T23:09:02;17.25;;;11.13;;
76964;SDS011;65903;51.452;7.198;2022-12-07T23:10:08;23.02;;;11.82;;
76964;SDS011;65903;51.452;7.198;2022-12-07T23:11:12;21.70;;;11.38;;
76964;SDS011;65903;51.452;7.198;2022-12-07T23:12:35;24.88;;;13.50;;
76964;SDS011;65903;51.452;7.198;2022-12-07T23:13:53;27.30;;;11.98;;
76964;SDS011;65903;51.452;7.198;2022-12-07T23:14:56;23.13;;;13.13;;
76964;SDS011;65903;51.452;7.198;2022-12-07T23:15:59;20.60;;;12.60;;
76964;SDS011;65903;51.452;7.198;2022-12-07T23:17:00;23.67;;;13.13;;
76964;SDS011;65903;51.452;7.198;2022-12-07T23:18:01;22.15;;;12.27;;
76964;SDS011;65903;51.452;7.198;2022-12-07T23:20:04;23.07;;;13.33;;
76964;SDS011;65903;51.452;7.198;2022-12-07T23:21:04;28.33;;;15.15;;
76964;SDS011;65903;51.452;7.198;2022-12-07T23:22:08;29.33;;;13.90;;
76964;SDS011;65903;51.452;7.198;2022-12-07T23:23:08;21.67;;;13.30;;
76964;SDS011;65903;51.452;7.198;2022-12-07T23:24:11;23.80;;;14.00;;
76964;SDS011;65903;51.452;7.198;2022-12-07T23:25:14;20.85;;;13.52;;
76964;SDS011;65903;51.452;7.198;2022-12-07T23:26:14;27.87;;;14.80;;
76964;SDS011;65903;51.452;7.198;2022-12-07T23:27:15;26.15;;;14.90;;
76964;SDS011;65903;51.452;7.198;2022-12-07T23:28:15;24.53;;;14.10;;
76964;SDS011;65903;51.452;7.198;2022-12-07T23:29:15;25.03;;;13.13;;
76964;SDS011;65903;51.452;7.198;2022-12-07T23:30:18;27.55;;;14.32;;
76964;SDS011;65903;51.452;7.198;2022-12-07T23:31:19;24.75;;;15.52;;
76964;SDS011;65903;51.452;7.198;2022-12-07T23:32:19;32.58;;;16.00;;
76964;SDS011;65903;51.452;7.198;2022-12-07T23:33:19;25.77;;;15.60;;
76964;SDS011;65903;51.452;7.198;2022-12-07T23:34:23;14.57;;;9.02;;
76964;SDS011;65903;51.452;7.198;2022-12-07T23:35:23;27.23;;;14.50;;
76964;SDS011;65903;51.452;7.198;2022-12-07T23:36:24;26.98;;;15.27;;
76964;SDS011;65903;51.452;7.198;2022-12-07T23:37:24;26.88;;;15.73;;
76964;SDS011;65903;51.452;7.198;2022-12-07T23:38:25;30.35;;;16.42;;
76964;SDS011;65903;51.452;7.198;2022-12-07T23:39:25;30.57;;;16.77;;
76964;SDS011;65903;51.452;7.198;2022-12-07T23:40:27;24.70;;;15.17;;
76964;SDS011;65903;51.452;7.198;2022-12-07T23:41:28;26.27;;;16.33;;
76964;SDS011;65903;51.452;7.198;2022-12-07T23:42:29;29.90;;;16.92;;
76964;SDS011;65903;51.452;7.198;2022-12-07T23:43:31;20.73;;;12.85;;
76964;SDS011;65903;51.452;7.198;2022-12-07T23:44:31;21.00;;;10.43;;
76964;SDS011;65903;51.452;7.198;2022-12-07T23:45:31;27.27;;;14.88;;
76964;SDS011;65903;51.452;7.198;2022-12-07T23:46:32;28.40;;;15.63;;
76964;SDS011;65903;51.452;7.198;2022-12-07T23:47:33;31.08;;;17.60;;
76964;SDS011;65903;51.452;7.198;2022-12-07T23:48:33;13.73;;;7.80;;
76964;SDS011;65903;51.452;7.198;2022-12-07T23:49:34;26.05;;;15.73;;
76964;SDS011;65903;51.452;7.198;2022-12-07T23:50:34;28.77;;;15.25;;
76964;SDS011;65903;51.452;7.198;2022-12-07T23:51:34;27.42;;;16.45;;
76964;SDS011;65903;51.452;7.198;2022-12-07T23:52:34;23.53;;;13.03;;
76964;SDS011;65903;51.452;7.198;2022-12-07T23:53:40;23.70;;;13.73;;
76964;SDS011;65903;51.452;7.198;2022-12-07T23:54:40;31.55;;;17.05;;
76964;SDS011;65903;51.452;7.198;2022-12-07T23:55:44;27.63;;;14.93;;
76964;SDS011;65903;51.452;7.198;2022-12-07T23:56:44;27.38;;;13.68;;
76964;SDS011;65903;51.452;7.198;2022-12-07T23:57:44;28.33;;;16.00;;
76964;SDS011;65903;51.452;7.198;2022-12-07T23:58:45;28.27;;;17.20;;
76964;SDS011;65903;51.452;7.198;2022-12-07T23:59:45;34.60;;;17.77;;
